sensor_id;sensor_type;location;lat;lon;timestamp;P1;durP1;ratioP1;P2;durP2;ratioP2
41167;SDS011;26906;45.658;9.272;2023-12-14T08:14:21;63.20;;;27.92;;
41167;SDS011;26906;45.658;9.272;2023-12-14T08:16:46;56.92;;;27.67;;
41167;SDS011;26906;45.658;9.272;2023-12-14T08:21:54;81.00;;;28.85;;
41167;SDS011;26906;45.658;9.272;2023-12-14T08:24:19;67.60;;;28.45;;
41167;SDS011;26906;45.658;9.272;2023-12-14T08:26:46;87.57;;;29.52;;
41167;SDS011;26906;45.658;9.272;2023-12-14T08:29:12;63.85;;;29.65;;
41167;SDS011;26906;45.658;9.272;2023-12-14T08:31:38;80.78;;;30.95;;
41167;SDS011;26906;45.658;9.272;2023-12-14T08:34:05;72.53;;;31.42;;
41167;SDS011;26906;45.658;9.272;2023-12-14T08:36:30;66.40;;;30.58;;
41167;SDS011;26906;45.658;9.272;2023-12-14T08:38:56;68.50;;;30.45;;
41167;SDS011;26906;45.658;9.272;2023-12-14T08:41:23;69.40;;;30.33;;
41167;SDS011;26906;45.658;9.272;2023-12-14T08:43:49;66.40;;;29.67;;
41167;SDS011;26906;45.658;9.272;2023-12-14T08:46:15;75.57;;;31.58;;
41167;SDS011;26906;45.658;9.272;2023-12-14T08:48:40;70.32;;;32.60;;
41167;SDS011;26906;45.658;9.272;2023-12-14T08:51:06;70.65;;;33.35;;
41167;SDS011;26906;45.658;9.272;2023-12-14T08:53:32;75.00;;;33.97;;
41167;SDS011;26906;45.658;9.272;2023-12-14T08:55:58;76.40;;;33.38;;
41167;SDS011;26906;45.658;9.272;2023-12-14T08:58:23;61.53;;;30.90;;
41167;SDS011;26906;45.658;9.272;2023-12-14T09:00:49;68.68;;;32.15;;
41167;SDS011;26906;45.658;9.272;2023-12-14T09:03:21;66.28;;;30.27;;
41167;SDS011;26906;45.658;9.272;2023-12-14T09:05:46;65.15;;;30.77;;
41167;SDS011;26906;45.658;9.272;2023-12-14T09:08:12;61.80;;;28.77;;
41167;SDS011;26906;45.658;9.272;2023-12-14T09:10:38;63.47;;;30.48;;
41167;SDS011;26906;45.658;9.272;2023-12-14T09:13:04;58.58;;;28.80;;
41167;SDS011;26906;45.658;9.272;2023-12-14T09:15:31;60.22;;;29.85;;
41167;SDS011;26906;45.658;9.272;2023-12-14T09:17:57;55.38;;;27.08;;
41167;SDS011;26906;45.658;9.272;2023-12-14T09:20:22;52.17;;;26.40;;
41167;SDS011;26906;45.658;9.272;2023-12-14T09:22:48;56.47;;;28.70;;
41167;SDS011;26906;45.658;9.272;2023-12-14T09:25:14;54.58;;;28.42;;
41167;SDS011;26906;45.658;9.272;2023-12-14T09:27:40;55.85;;;27.20;;
41167;SDS011;26906;45.658;9.272;2023-12-14T09:30:07;52.40;;;26.02;;
41167;SDS011;26906;45.658;9.272;2023-12-14T09:32:33;52.92;;;26.38;;
41167;SDS011;26906;45.658;9.272;2023-12-14T09:34:59;46.13;;;26.27;;
41167;SDS011;26906;45.658;9.272;2023-12-14T09:37:25;53.70;;;25.75;;
41167;SDS011;26906;45.658;9.272;2023-12-14T09:39:51;49.55;;;26.83;;
41167;SDS011;26906;45.658;9.272;2023-12-14T09:42:20;53.83;;;30.30;;
41167;SDS011;26906;45.658;9.272;2023-12-14T09:44:50;67.03;;;37.50;;
41167;SDS011;26906;45.658;9.272;2023-12-14T09:47:17;71.05;;;36.63;;
41167;SDS011;26906;45.658;9.272;2023-12-14T09:49:43;49.72;;;26.48;;
41167;SDS011;26906;45.658;9.272;2023-12-14T09:52:11;59.17;;;29.92;;
41167;SDS011;26906;45.658;9.272;2023-12-14T09:54:39;51.95;;;28.77;;
41167;SDS011;26906;45.658;9.272;2023-12-14T09:57:05;55.05;;;27.13;;
41167;SDS011;26906;45.658;9.272;2023-12-14T09:59:31;48.25;;;25.90;;
41167;SDS011;26906;45.658;9.272;2023-12-14T10:02:08;52.55;;;27.27;;
41167;SDS011;26906;45.658;9.272;2023-12-14T10:04:37;54.22;;;28.63;;
41167;SDS011;26906;45.658;9.272;2023-12-14T10:07:03;51.17;;;28.63;;
41167;SDS011;26906;45.658;9.272;2023-12-14T10:09:32;52.60;;;27.35;;
41167;SDS011;26906;45.658;9.272;2023-12-14T10:12:04;50.70;;;27.95;;
41167;SDS011;26906;45.658;9.272;2023-12-14T10:14:32;54.55;;;26.90;;
41167;SDS011;26906;45.658;9.272;2023-12-14T10:16:58;48.00;;;26.38;;
41167;SDS011;26906;45.658;9.272;2023-12-14T10:19:24;52.08;;;27.20;;
41167;SDS011;26906;45.658;9.272;2023-12-14T10:21:50;51.58;;;29.13;;
41167;SDS011;26906;45.658;9.272;2023-12-14T10:24:16;51.85;;;28.48;;
41167;SDS011;26906;45.658;9.272;2023-12-14T10:26:45;50.33;;;27.73;;
41167;SDS011;26906;45.658;9.272;2023-12-14T10:29:11;54.15;;;29.80;;
41167;SDS011;26906;45.658;9.272;2023-12-14T10:31:37;61.55;;;32.35;;
41167;SDS011;26906;45.658;9.272;2023-12-14T10:34:03;59.97;;;32.38;;
41167;SDS011;26906;45.658;9.272;2023-12-14T10:36:30;56.50;;;31.98;;
41167;SDS011;26906;45.658;9.272;2023-12-14T10:38:57;56.95;;;30.00;;
41167;SDS011;26906;45.658;9.272;2023-12-14T10:41:24;54.40;;;30.00;;
41167;SDS011;26906;45.658;9.272;2023-12-14T10:43:50;61.63;;;32.47;;
41167;SDS011;26906;45.658;9.272;2023-12-14T10:46:20;61.75;;;33.92;;
41167;SDS011;26906;45.658;9.272;2023-12-14T10:48:49;70.05;;;34.97;;
41167;SDS011;26906;45.658;9.272;2023-12-14T10:51:20;61.83;;;32.05;;
41167;SDS011;26906;45.658;9.272;2023-12-14T10:53:47;59.45;;;33.72;;
41167;SDS011;26906;45.658;9.272;2023-12-14T10:56:14;64.90;;;33.53;;
41167;SDS011;26906;45.658;9.272;2023-12-14T11:01:15;68.63;;;35.75;;
41167;SDS011;26906;45.658;9.272;2023-12-14T11:03:42;67.22;;;36.55;;
41167;SDS011;26906;45.658;9.272;2023-12-14T11:06:19;68.28;;;36.17;;
41167;SDS011;26906;45.658;9.272;2023-12-14T11:08:47;71.00;;;38.13;;
41167;SDS011;26906;45.658;9.272;2023-12-14T11:11:13;74.80;;;39.17;;
41167;SDS011;26906;45.658;9.272;2023-12-14T11:13:45;69.85;;;38.70;;
41167;SDS011;26906;45.658;9.272;2023-12-14T11:16:22;67.30;;;38.28;;
41167;SDS011;26906;45.658;9.272;2023-12-14T11:18:48;67.63;;;38.38;;
41167;SDS011;26906;45.658;9.272;2023-12-14T11:21:34;68.25;;;38.85;;
41167;SDS011;26906;45.658;9.272;2023-12-14T11:23:59;68.63;;;38.47;;
41167;SDS011;26906;45.658;9.272;2023-12-14T11:26:26;68.57;;;37.53;;
41167;SDS011;26906;45.658;9.272;2023-12-14T11:28:53;70.93;;;36.83;;
41167;SDS011;26906;45.658;9.272;2023-12-14T11:31:19;58.65;;;35.17;;
41167;SDS011;26906;45.658;9.272;2023-12-14T11:33:45;63.80;;;36.13;;
41167;SDS011;26906;45.658;9.272;2023-12-14T11:36:13;60.70;;;35.38;;
41167;SDS011;26906;45.658;9.272;2023-12-14T11:38:39;60.17;;;35.97;;
41167;SDS011;26906;45.658;9.272;2023-12-14T11:41:05;62.47;;;36.20;;
41167;SDS011;26906;45.658;9.272;2023-12-14T11:43:38;56.08;;;33.38;;
41167;SDS011;26906;45.658;9.272;2023-12-14T11:46:05;61.90;;;33.55;;
41167;SDS011;26906;45.658;9.272;2023-12-14T11:48:31;60.30;;;34.85;;
41167;SDS011;26906;45.658;9.272;2023-12-14T11:50:56;61.25;;;35.83;;
41167;SDS011;26906;45.658;9.272;2023-12-14T11:53:22;54.80;;;33.45;;
41167;SDS011;26906;45.658;9.272;2023-12-14T11:55:48;61.17;;;36.60;;
41167;SDS011;26906;45.658;9.272;2023-12-14T11:58:15;65.00;;;36.60;;
41167;SDS011;26906;45.658;9.272;2023-12-14T12:00:41;61.92;;;36.67;;
41167;SDS011;26906;45.658;9.272;2023-12-14T12:03:16;63.35;;;36.63;;
41167;SDS011;26906;45.658;9.272;2023-12-14T12:05:45;63.75;;;36.72;;
41167;SDS011;26906;45.658;9.272;2023-12-14T12:08:13;58.25;;;36.38;;
41167;SDS011;26906;45.658;9.272;2023-12-14T12:10:40;59.33;;;35.90;;
41167;SDS011;26906;45.658;9.272;2023-12-14T12:13:07;62.22;;;36.92;;
41167;SDS011;26906;45.658;9.272;2023-12-14T12:15:36;56.63;;;35.20;;
41167;SDS011;26906;45.658;9.272;2023-12-14T12:18:02;58.00;;;35.90;;
41167;SDS011;26906;45.658;9.272;2023-12-14T12:20:30;63.10;;;36.30;;
41167;SDS011;26906;45.658;9.272;2023-12-14T12:22:56;60.42;;;36.53;;
41167;SDS011;26906;45.658;9.272;2023-12-14T12:25:21;62.20;;;35.33;;
41167;SDS011;26906;45.658;9.272;2023-12-14T12:27:48;61.80;;;34.58;;
41167;SDS011;26906;45.658;9.272;2023-12-14T12:30:13;59.38;;;36.30;;
41167;SDS011;26906;45.658;9.272;2023-12-14T12:32:40;58.83;;;37.88;;
41167;SDS011;26906;45.658;9.272;2023-12-14T12:35:06;58.33;;;36.80;;
41167;SDS011;26906;45.658;9.272;2023-12-14T12:37:33;61.33;;;37.50;;
41167;SDS011;26906;45.658;9.272;2023-12-14T12:39:59;61.08;;;38.30;;
41167;SDS011;26906;45.658;9.272;2023-12-14T12:42:24;63.13;;;36.22;;
41167;SDS011;26906;45.658;9.272;2023-12-14T12:44:51;60.80;;;36.20;;
41167;SDS011;26906;45.658;9.272;2023-12-14T12:47:17;57.83;;;35.53;;
41167;SDS011;26906;45.658;9.272;2023-12-14T12:49:43;62.08;;;37.28;;
41167;SDS011;26906;45.658;9.272;2023-12-14T12:52:10;59.28;;;36.60;;
41167;SDS011;26906;45.658;9.272;2023-12-14T12:54:36;68.20;;;36.67;;
41167;SDS011;26906;45.658;9.272;2023-12-14T12:57:02;55.47;;;36.10;;
41167;SDS011;26906;45.658;9.272;2023-12-14T12:59:28;64.75;;;37.38;;
41167;SDS011;26906;45.658;9.272;2023-12-14T13:01:54;57.20;;;36.42;;
41167;SDS011;26906;45.658;9.272;2023-12-14T13:04:20;60.78;;;36.30;;
41167;SDS011;26906;45.658;9.272;2023-12-14T13:06:47;65.70;;;36.88;;
41167;SDS011;26906;45.658;9.272;2023-12-14T13:09:14;64.28;;;38.60;;
41167;SDS011;26906;45.658;9.272;2023-12-14T13:11:43;52.47;;;35.78;;
41167;SDS011;26906;45.658;9.272;2023-12-14T13:14:10;62.90;;;35.70;;
41167;SDS011;26906;45.658;9.272;2023-12-14T13:16:36;60.67;;;37.47;;
41167;SDS011;26906;45.658;9.272;2023-12-14T13:19:04;62.53;;;38.00;;
41167;SDS011;26906;45.658;9.272;2023-12-14T13:21:34;60.50;;;36.47;;
41167;SDS011;26906;45.658;9.272;2023-12-14T13:24:00;58.53;;;37.13;;
41167;SDS011;26906;45.658;9.272;2023-12-14T13:26:25;62.88;;;37.95;;
41167;SDS011;26906;45.658;9.272;2023-12-14T13:28:52;57.70;;;36.17;;
41167;SDS011;26906;45.658;9.272;2023-12-14T13:31:18;59.30;;;36.67;;
41167;SDS011;26906;45.658;9.272;2023-12-14T13:33:48;58.42;;;37.63;;
41167;SDS011;26906;45.658;9.272;2023-12-14T13:36:15;62.28;;;38.33;;
41167;SDS011;26906;45.658;9.272;2023-12-14T13:38:41;61.63;;;37.75;;
41167;SDS011;26906;45.658;9.272;2023-12-14T13:41:08;54.22;;;35.95;;
41167;SDS011;26906;45.658;9.272;2023-12-14T13:43:34;59.75;;;36.08;;
41167;SDS011;26906;45.658;9.272;2023-12-14T13:46:00;65.55;;;37.50;;
41167;SDS011;26906;45.658;9.272;2023-12-14T13:48:25;63.35;;;36.25;;
41167;SDS011;26906;45.658;9.272;2023-12-14T13:50:55;58.55;;;36.45;;
41167;SDS011;26906;45.658;9.272;2023-12-14T13:53:22;58.03;;;36.15;;
41167;SDS011;26906;45.658;9.272;2023-12-14T13:55:49;57.97;;;37.05;;
41167;SDS011;26906;45.658;9.272;2023-12-14T13:58:15;53.50;;;35.45;;
41167;SDS011;26906;45.658;9.272;2023-12-14T14:00:41;58.95;;;37.15;;
41167;SDS011;26906;45.658;9.272;2023-12-14T14:03:08;61.28;;;35.88;;
41167;SDS011;26906;45.658;9.272;2023-12-14T14:05:34;56.92;;;36.38;;
41167;SDS011;26906;45.658;9.272;2023-12-14T14:08:00;61.47;;;36.72;;
41167;SDS011;26906;45.658;9.272;2023-12-14T14:10:26;60.65;;;35.28;;
41167;SDS011;26906;45.658;9.272;2023-12-14T14:12:51;56.65;;;36.13;;
41167;SDS011;26906;45.658;9.272;2023-12-14T14:15:18;57.85;;;36.75;;
41167;SDS011;26906;45.658;9.272;2023-12-14T14:17:45;57.30;;;36.70;;
41167;SDS011;26906;45.658;9.272;2023-12-14T14:20:16;54.45;;;36.08;;
41167;SDS011;26906;45.658;9.272;2023-12-14T14:22:42;57.22;;;35.00;;
41167;SDS011;26906;45.658;9.272;2023-12-14T14:25:08;56.67;;;36.80;;
41167;SDS011;26906;45.658;9.272;2023-12-14T14:27:33;55.00;;;35.80;;
41167;SDS011;26906;45.658;9.272;2023-12-14T14:30:00;56.65;;;35.97;;
41167;SDS011;26906;45.658;9.272;2023-12-14T14:32:26;58.50;;;37.33;;
41167;SDS011;26906;45.658;9.272;2023-12-14T14:34:52;59.20;;;36.58;;
41167;SDS011;26906;45.658;9.272;2023-12-14T14:37:20;56.78;;;36.28;;
41167;SDS011;26906;45.658;9.272;2023-12-14T14:39:46;56.92;;;36.13;;
41167;SDS011;26906;45.658;9.272;2023-12-14T14:42:13;60.22;;;35.10;;
41167;SDS011;26906;45.658;9.272;2023-12-14T14:44:39;53.40;;;35.30;;
41167;SDS011;26906;45.658;9.272;2023-12-14T14:47:05;58.22;;;36.42;;
41167;SDS011;26906;45.658;9.272;2023-12-14T14:49:31;59.40;;;36.85;;
41167;SDS011;26906;45.658;9.272;2023-12-14T14:51:56;54.45;;;35.80;;
41167;SDS011;26906;45.658;9.272;2023-12-14T14:54:22;61.53;;;38.35;;
41167;SDS011;26906;45.658;9.272;2023-12-14T14:56:48;63.83;;;38.95;;
41167;SDS011;26906;45.658;9.272;2023-12-14T14:59:14;61.30;;;37.53;;
41167;SDS011;26906;45.658;9.272;2023-12-14T15:01:40;58.10;;;38.05;;
41167;SDS011;26906;45.658;9.272;2023-12-14T15:04:10;65.78;;;38.95;;
41167;SDS011;26906;45.658;9.272;2023-12-14T15:06:36;64.00;;;39.03;;
41167;SDS011;26906;45.658;9.272;2023-12-14T15:09:02;64.78;;;39.50;;
41167;SDS011;26906;45.658;9.272;2023-12-14T15:11:30;63.42;;;38.50;;
41167;SDS011;26906;45.658;9.272;2023-12-14T15:13:56;58.17;;;37.28;;
41167;SDS011;26906;45.658;9.272;2023-12-14T15:16:22;62.17;;;36.72;;
41167;SDS011;26906;45.658;9.272;2023-12-14T15:18:50;65.10;;;39.10;;
41167;SDS011;26906;45.658;9.272;2023-12-14T15:21:16;67.95;;;38.55;;
41167;SDS011;26906;45.658;9.272;2023-12-14T15:23:42;67.15;;;38.90;;
41167;SDS011;26906;45.658;9.272;2023-12-14T15:26:09;68.80;;;40.30;;
41167;SDS011;26906;45.658;9.272;2023-12-14T15:28:36;62.25;;;38.53;;
41167;SDS011;26906;45.658;9.272;2023-12-14T15:31:02;65.53;;;38.35;;
41167;SDS011;26906;45.658;9.272;2023-12-14T15:33:28;71.72;;;39.45;;
41167;SDS011;26906;45.658;9.272;2023-12-14T15:35:53;70.45;;;39.38;;
41167;SDS011;26906;45.658;9.272;2023-12-14T15:38:19;74.57;;;40.03;;
41167;SDS011;26906;45.658;9.272;2023-12-14T15:40:45;64.43;;;39.80;;
41167;SDS011;26906;45.658;9.272;2023-12-14T15:43:11;68.95;;;38.40;;
41167;SDS011;26906;45.658;9.272;2023-12-14T15:45:38;66.63;;;38.75;;
41167;SDS011;26906;45.658;9.272;2023-12-14T15:48:03;73.65;;;39.60;;
41167;SDS011;26906;45.658;9.272;2023-12-14T15:50:31;63.80;;;38.05;;
41167;SDS011;26906;45.658;9.272;2023-12-14T15:52:57;64.60;;;37.83;;
41167;SDS011;26906;45.658;9.272;2023-12-14T15:55:23;77.47;;;43.80;;
41167;SDS011;26906;45.658;9.272;2023-12-14T15:57:52;76.10;;;41.92;;
41167;SDS011;26906;45.658;9.272;2023-12-14T16:00:18;69.38;;;40.83;;
41167;SDS011;26906;45.658;9.272;2023-12-14T16:02:45;66.10;;;39.63;;
41167;SDS011;26906;45.658;9.272;2023-12-14T16:05:11;73.63;;;39.45;;
41167;SDS011;26906;45.658;9.272;2023-12-14T16:07:38;66.43;;;39.85;;
41167;SDS011;26906;45.658;9.272;2023-12-14T16:10:03;74.32;;;40.50;;
41167;SDS011;26906;45.658;9.272;2023-12-14T16:12:29;68.15;;;38.72;;
41167;SDS011;26906;45.658;9.272;2023-12-14T16:14:55;66.70;;;39.63;;
41167;SDS011;26906;45.658;9.272;2023-12-14T16:17:25;68.43;;;39.25;;
41167;SDS011;26906;45.658;9.272;2023-12-14T16:19:53;77.10;;;41.97;;
41167;SDS011;26906;45.658;9.272;2023-12-14T16:22:19;75.38;;;43.88;;
41167;SDS011;26906;45.658;9.272;2023-12-14T16:24:45;80.57;;;43.75;;
41167;SDS011;26906;45.658;9.272;2023-12-14T16:27:10;59.92;;;37.30;;
41167;SDS011;26906;45.658;9.272;2023-12-14T16:29:37;67.38;;;40.90;;
41167;SDS011;26906;45.658;9.272;2023-12-14T16:32:03;62.75;;;38.80;;
41167;SDS011;26906;45.658;9.272;2023-12-14T16:34:29;65.97;;;39.17;;
41167;SDS011;26906;45.658;9.272;2023-12-14T16:36:55;62.35;;;37.55;;
41167;SDS011;26906;45.658;9.272;2023-12-14T16:39:21;63.63;;;37.63;;
41167;SDS011;26906;45.658;9.272;2023-12-14T16:41:46;74.00;;;40.50;;
41167;SDS011;26906;45.658;9.272;2023-12-14T16:44:12;67.20;;;39.78;;
41167;SDS011;26906;45.658;9.272;2023-12-14T16:46:38;66.43;;;39.72;;
41167;SDS011;26906;45.658;9.272;2023-12-14T16:49:04;67.32;;;39.72;;
41167;SDS011;26906;45.658;9.272;2023-12-14T16:51:30;64.75;;;37.03;;
41167;SDS011;26906;45.658;9.272;2023-12-14T16:53:55;67.25;;;37.78;;
41167;SDS011;26906;45.658;9.272;2023-12-14T16:56:27;70.70;;;40.45;;
41167;SDS011;26906;45.658;9.272;2023-12-14T16:58:56;59.10;;;35.05;;
41167;SDS011;26906;45.658;9.272;2023-12-14T17:01:23;64.80;;;37.28;;
41167;SDS011;26906;45.658;9.272;2023-12-14T17:03:49;52.28;;;31.88;;
41167;SDS011;26906;45.658;9.272;2023-12-14T17:06:21;89.47;;;56.10;;
41167;SDS011;26906;45.658;9.272;2023-12-14T17:08:47;60.53;;;36.33;;
41167;SDS011;26906;45.658;9.272;2023-12-14T17:11:13;64.82;;;36.53;;
41167;SDS011;26906;45.658;9.272;2023-12-14T17:13:39;63.28;;;39.03;;
41167;SDS011;26906;45.658;9.272;2023-12-14T17:16:15;63.53;;;37.92;;
41167;SDS011;26906;45.658;9.272;2023-12-14T17:18:42;65.18;;;38.47;;
41167;SDS011;26906;45.658;9.272;2023-12-14T17:21:15;65.95;;;39.65;;
41167;SDS011;26906;45.658;9.272;2023-12-14T17:23:44;62.58;;;38.80;;
41167;SDS011;26906;45.658;9.272;2023-12-14T17:26:11;68.95;;;41.88;;
41167;SDS011;26906;45.658;9.272;2023-12-14T17:28:39;77.43;;;47.35;;
41167;SDS011;26906;45.658;9.272;2023-12-14T17:31:08;80.78;;;44.83;;
41167;SDS011;26906;45.658;9.272;2023-12-14T17:33:34;87.70;;;49.20;;
41167;SDS011;26906;45.658;9.272;2023-12-14T17:36:01;78.75;;;46.97;;
41167;SDS011;26906;45.658;9.272;2023-12-14T17:38:26;70.45;;;43.38;;
41167;SDS011;26906;45.658;9.272;2023-12-14T17:40:54;73.10;;;42.13;;
41167;SDS011;26906;45.658;9.272;2023-12-14T17:43:19;64.82;;;39.50;;
41167;SDS011;26906;45.658;9.272;2023-12-14T17:45:45;67.38;;;39.33;;
41167;SDS011;26906;45.658;9.272;2023-12-14T17:48:11;64.05;;;39.08;;
41167;SDS011;26906;45.658;9.272;2023-12-14T17:50:37;64.75;;;37.33;;
41167;SDS011;26906;45.658;9.272;2023-12-14T17:53:03;57.30;;;35.95;;
41167;SDS011;26906;45.658;9.272;2023-12-14T17:55:29;59.00;;;36.08;;
41167;SDS011;26906;45.658;9.272;2023-12-14T17:57:54;66.75;;;37.38;;
41167;SDS011;26906;45.658;9.272;2023-12-14T18:00:20;77.80;;;43.97;;
41167;SDS011;26906;45.658;9.272;2023-12-14T18:02:46;77.88;;;43.55;;
41167;SDS011;26906;45.658;9.272;2023-12-14T18:05:12;72.03;;;40.85;;
41167;SDS011;26906;45.658;9.272;2023-12-14T18:07:38;63.80;;;36.38;;
41167;SDS011;26906;45.658;9.272;2023-12-14T18:10:03;73.65;;;42.90;;
41167;SDS011;26906;45.658;9.272;2023-12-14T18:12:32;76.28;;;42.63;;
41167;SDS011;26906;45.658;9.272;2023-12-14T18:14:58;78.15;;;44.25;;
41167;SDS011;26906;45.658;9.272;2023-12-14T18:17:24;73.95;;;45.17;;
41167;SDS011;26906;45.658;9.272;2023-12-14T18:19:49;77.68;;;47.20;;
41167;SDS011;26906;45.658;9.272;2023-12-14T18:22:15;81.68;;;50.95;;
41167;SDS011;26906;45.658;9.272;2023-12-14T18:24:40;84.10;;;48.58;;
41167;SDS011;26906;45.658;9.272;2023-12-14T18:27:06;89.43;;;51.30;;
41167;SDS011;26906;45.658;9.272;2023-12-14T18:29:32;68.68;;;40.35;;
41167;SDS011;26906;45.658;9.272;2023-12-14T18:31:57;69.78;;;41.47;;
41167;SDS011;26906;45.658;9.272;2023-12-14T18:34:23;73.43;;;43.88;;
41167;SDS011;26906;45.658;9.272;2023-12-14T18:36:49;71.43;;;42.08;;
41167;SDS011;26906;45.658;9.272;2023-12-14T18:39:14;76.45;;;41.92;;
41167;SDS011;26906;45.658;9.272;2023-12-14T18:41:40;78.95;;;44.63;;
41167;SDS011;26906;45.658;9.272;2023-12-14T18:44:06;79.43;;;44.47;;
41167;SDS011;26906;45.658;9.272;2023-12-14T18:46:33;95.60;;;51.80;;
41167;SDS011;26906;45.658;9.272;2023-12-14T18:48:59;93.45;;;50.22;;
41167;SDS011;26906;45.658;9.272;2023-12-14T18:51:24;79.25;;;46.47;;
41167;SDS011;26906;45.658;9.272;2023-12-14T18:53:50;72.60;;;42.60;;
41167;SDS011;26906;45.658;9.272;2023-12-14T18:56:15;74.95;;;42.53;;
41167;SDS011;26906;45.658;9.272;2023-12-14T18:58:41;74.45;;;42.20;;
41167;SDS011;26906;45.658;9.272;2023-12-14T19:01:07;80.90;;;43.85;;
41167;SDS011;26906;45.658;9.272;2023-12-14T19:03:32;73.57;;;43.05;;
41167;SDS011;26906;45.658;9.272;2023-12-14T19:06:00;68.88;;;40.10;;
41167;SDS011;26906;45.658;9.272;2023-12-14T19:08:33;68.97;;;40.53;;
41167;SDS011;26906;45.658;9.272;2023-12-14T19:11:00;63.55;;;37.72;;
41167;SDS011;26906;45.658;9.272;2023-12-14T19:13:27;67.22;;;37.70;;
41167;SDS011;26906;45.658;9.272;2023-12-14T19:15:52;79.32;;;40.63;;
41167;SDS011;26906;45.658;9.272;2023-12-14T19:18:18;83.40;;;48.03;;
41167;SDS011;26906;45.658;9.272;2023-12-14T19:20:44;73.78;;;45.60;;
41167;SDS011;26906;45.658;9.272;2023-12-14T19:23:09;78.00;;;46.90;;
41167;SDS011;26906;45.658;9.272;2023-12-14T19:25:35;81.50;;;48.72;;
41167;SDS011;26906;45.658;9.272;2023-12-14T19:28:02;80.30;;;47.35;;
41167;SDS011;26906;45.658;9.272;2023-12-14T19:30:29;77.72;;;44.30;;
41167;SDS011;26906;45.658;9.272;2023-12-14T19:32:55;82.60;;;47.85;;
41167;SDS011;26906;45.658;9.272;2023-12-14T19:35:21;81.35;;;49.42;;
41167;SDS011;26906;45.658;9.272;2023-12-14T19:37:46;86.03;;;50.65;;
41167;SDS011;26906;45.658;9.272;2023-12-14T19:40:18;78.38;;;47.70;;
41167;SDS011;26906;45.658;9.272;2023-12-14T19:42:45;82.03;;;45.35;;
41167;SDS011;26906;45.658;9.272;2023-12-14T19:45:10;80.60;;;46.75;;
41167;SDS011;26906;45.658;9.272;2023-12-14T19:47:36;80.88;;;47.88;;
41167;SDS011;26906;45.658;9.272;2023-12-14T19:50:05;79.53;;;46.30;;
41167;SDS011;26906;45.658;9.272;2023-12-14T19:52:32;79.68;;;48.80;;
41167;SDS011;26906;45.658;9.272;2023-12-14T19:54:57;76.38;;;45.72;;
41167;SDS011;26906;45.658;9.272;2023-12-14T19:57:23;71.82;;;45.65;;
41167;SDS011;26906;45.658;9.272;2023-12-14T19:59:49;92.97;;;49.22;;
41167;SDS011;26906;45.658;9.272;2023-12-14T20:02:15;79.03;;;44.85;;
41167;SDS011;26906;45.658;9.272;2023-12-14T20:04:41;74.05;;;46.20;;
41167;SDS011;26906;45.658;9.272;2023-12-14T20:07:07;72.53;;;43.58;;
41167;SDS011;26906;45.658;9.272;2023-12-14T20:09:36;75.70;;;45.65;;
41167;SDS011;26906;45.658;9.272;2023-12-14T20:12:02;81.13;;;46.08;;
41167;SDS011;26906;45.658;9.272;2023-12-14T20:14:28;80.05;;;48.45;;
41167;SDS011;26906;45.658;9.272;2023-12-14T20:16:54;76.60;;;44.70;;
41167;SDS011;26906;45.658;9.272;2023-12-14T20:19:21;76.47;;;44.22;;
41167;SDS011;26906;45.658;9.272;2023-12-14T20:21:47;75.72;;;45.03;;
41167;SDS011;26906;45.658;9.272;2023-12-14T20:24:12;87.80;;;51.40;;
41167;SDS011;26906;45.658;9.272;2023-12-14T20:26:38;92.38;;;55.65;;
41167;SDS011;26906;45.658;9.272;2023-12-14T20:29:04;106.47;;;62.83;;
41167;SDS011;26906;45.658;9.272;2023-12-14T20:31:30;94.85;;;51.80;;
41167;SDS011;26906;45.658;9.272;2023-12-14T20:33:58;82.53;;;48.40;;
41167;SDS011;26906;45.658;9.272;2023-12-14T20:36:25;80.28;;;45.47;;
41167;SDS011;26906;45.658;9.272;2023-12-14T20:38:51;73.53;;;44.08;;
41167;SDS011;26906;45.658;9.272;2023-12-14T20:41:17;60.90;;;35.60;;
41167;SDS011;26906;45.658;9.272;2023-12-14T20:43:47;76.28;;;43.25;;
41167;SDS011;26906;45.658;9.272;2023-12-14T20:46:12;50.97;;;31.98;;
41167;SDS011;26906;45.658;9.272;2023-12-14T20:48:38;43.88;;;28.88;;
41167;SDS011;26906;45.658;9.272;2023-12-14T20:51:05;48.88;;;28.75;;
41167;SDS011;26906;45.658;9.272;2023-12-14T20:53:31;56.03;;;33.72;;
41167;SDS011;26906;45.658;9.272;2023-12-14T20:56:00;38.20;;;23.40;;
41167;SDS011;26906;45.658;9.272;2023-12-14T20:58:25;42.28;;;23.50;;
41167;SDS011;26906;45.658;9.272;2023-12-14T21:00:51;31.45;;;20.83;;
41167;SDS011;26906;45.658;9.272;2023-12-14T21:03:17;26.85;;;16.55;;
41167;SDS011;26906;45.658;9.272;2023-12-14T21:05:46;27.38;;;18.48;;
41167;SDS011;26906;45.658;9.272;2023-12-14T21:08:11;30.45;;;18.70;;
41167;SDS011;26906;45.658;9.272;2023-12-14T21:10:37;42.05;;;24.08;;
41167;SDS011;26906;45.658;9.272;2023-12-14T21:13:04;44.92;;;26.80;;
41167;SDS011;26906;45.658;9.272;2023-12-14T21:15:31;47.05;;;27.45;;
41167;SDS011;26906;45.658;9.272;2023-12-14T21:17:56;44.20;;;28.10;;
41167;SDS011;26906;45.658;9.272;2023-12-14T21:20:22;48.85;;;31.55;;
41167;SDS011;26906;45.658;9.272;2023-12-14T21:22:48;48.00;;;30.23;;
41167;SDS011;26906;45.658;9.272;2023-12-14T21:25:14;46.97;;;30.63;;
41167;SDS011;26906;45.658;9.272;2023-12-14T21:27:43;49.75;;;30.73;;
41167;SDS011;26906;45.658;9.272;2023-12-14T21:30:10;51.15;;;31.92;;
41167;SDS011;26906;45.658;9.272;2023-12-14T21:32:37;54.65;;;33.05;;
41167;SDS011;26906;45.658;9.272;2023-12-14T21:35:03;58.75;;;35.63;;
41167;SDS011;26906;45.658;9.272;2023-12-14T21:37:29;55.63;;;35.42;;
41167;SDS011;26906;45.658;9.272;2023-12-14T21:39:56;51.85;;;32.83;;
41167;SDS011;26906;45.658;9.272;2023-12-14T21:42:22;21.55;;;14.23;;
41167;SDS011;26906;45.658;9.272;2023-12-14T21:44:48;15.00;;;9.80;;
41167;SDS011;26906;45.658;9.272;2023-12-14T21:47:15;46.13;;;25.95;;
41167;SDS011;26906;45.658;9.272;2023-12-14T21:49:42;49.70;;;29.70;;
41167;SDS011;26906;45.658;9.272;2023-12-14T21:52:09;54.40;;;32.13;;
41167;SDS011;26906;45.658;9.272;2023-12-14T21:54:34;58.40;;;31.77;;
41167;SDS011;26906;45.658;9.272;2023-12-14T21:57:00;60.83;;;35.15;;
41167;SDS011;26906;45.658;9.272;2023-12-14T21:59:26;58.53;;;34.13;;
